sensor_id;sensor_type;location;lat;lon;timestamp;P1;durP1;ratioP1;P2;durP2;ratioP2
5841;SDS011;2947;52.276;9.946;2023-01-28T00:00:46;4.03;;;0.83;;
5841;SDS011;2947;52.276;9.946;2023-01-28T00:03:12;2.70;;;1.00;;
5841;SDS011;2947;52.276;9.946;2023-01-28T00:05:37;3.57;;;0.80;;
5841;SDS011;2947;52.276;9.946;2023-01-28T00:08:03;3.27;;;0.87;;
5841;SDS011;2947;52.276;9.946;2023-01-28T00:10:29;3.37;;;0.70;;
5841;SDS011;2947;52.276;9.946;2023-01-28T00:12:54;3.40;;;0.90;;
5841;SDS011;2947;52.276;9.946;2023-01-28T00:15:20;1.87;;;0.60;;
5841;SDS011;2947;52.276;9.946;2023-01-28T00:17:46;3.57;;;0.70;;
5841;SDS011;2947;52.276;9.946;2023-01-28T00:20:12;2.20;;;0.70;;
5841;SDS011;2947;52.276;9.946;2023-01-28T00:22:37;2.97;;;0.97;;
5841;SDS011;2947;52.276;9.946;2023-01-28T00:25:03;3.77;;;0.83;;
5841;SDS011;2947;52.276;9.946;2023-01-28T00:27:29;4.13;;;1.10;;
5841;SDS011;2947;52.276;9.946;2023-01-28T00:29:56;5.47;;;1.07;;
5841;SDS011;2947;52.276;9.946;2023-01-28T00:32:21;2.03;;;0.77;;
5841;SDS011;2947;52.276;9.946;2023-01-28T00:34:47;6.17;;;0.83;;
5841;SDS011;2947;52.276;9.946;2023-01-28T00:37:14;2.87;;;0.77;;
5841;SDS011;2947;52.276;9.946;2023-01-28T00:39:39;3.63;;;0.80;;
5841;SDS011;2947;52.276;9.946;2023-01-28T00:42:05;1.63;;;0.67;;
5841;SDS011;2947;52.276;9.946;2023-01-28T00:44:31;5.30;;;1.00;;
5841;SDS011;2947;52.276;9.946;2023-01-28T00:46:58;2.63;;;1.03;;
5841;SDS011;2947;52.276;9.946;2023-01-28T00:49:24;4.87;;;0.90;;
5841;SDS011;2947;52.276;9.946;2023-01-28T00:51:50;4.13;;;0.90;;
5841;SDS011;2947;52.276;9.946;2023-01-28T00:54:16;4.33;;;0.80;;
5841;SDS011;2947;52.276;9.946;2023-01-28T00:56:42;6.43;;;0.80;;
5841;SDS011;2947;52.276;9.946;2023-01-28T00:59:07;5.43;;;0.80;;
5841;SDS011;2947;52.276;9.946;2023-01-28T01:01:33;2.47;;;0.70;;
5841;SDS011;2947;52.276;9.946;2023-01-28T01:03:59;6.13;;;1.00;;
5841;SDS011;2947;52.276;9.946;2023-01-28T01:06:28;1.77;;;0.80;;
5841;SDS011;2947;52.276;9.946;2023-01-28T01:08:59;4.43;;;1.47;;
5841;SDS011;2947;52.276;9.946;2023-01-28T01:11:27;3.40;;;0.80;;
5841;SDS011;2947;52.276;9.946;2023-01-28T01:13:55;5.53;;;0.80;;
5841;SDS011;2947;52.276;9.946;2023-01-28T01:16:26;4.87;;;1.10;;
5841;SDS011;2947;52.276;9.946;2023-01-28T01:18:56;3.20;;;0.73;;
5841;SDS011;2947;52.276;9.946;2023-01-28T01:21:24;4.53;;;0.77;;
5841;SDS011;2947;52.276;9.946;2023-01-28T01:23:53;3.60;;;1.10;;
5841;SDS011;2947;52.276;9.946;2023-01-28T01:26:19;2.10;;;0.70;;
5841;SDS011;2947;52.276;9.946;2023-01-28T01:28:45;2.13;;;0.80;;
5841;SDS011;2947;52.276;9.946;2023-01-28T01:31:13;4.50;;;1.30;;
5841;SDS011;2947;52.276;9.946;2023-01-28T01:33:41;7.43;;;1.00;;
5841;SDS011;2947;52.276;9.946;2023-01-28T01:36:09;6.40;;;0.90;;
5841;SDS011;2947;52.276;9.946;2023-01-28T01:38:37;5.03;;;1.27;;
5841;SDS011;2947;52.276;9.946;2023-01-28T01:41:03;5.73;;;1.00;;
5841;SDS011;2947;52.276;9.946;2023-01-28T01:49:22;1.70;;;0.67;;
5841;SDS011;2947;52.276;9.946;2023-01-28T01:51:51;4.03;;;1.13;;
5841;SDS011;2947;52.276;9.946;2023-01-28T01:54:25;4.30;;;1.13;;
5841;SDS011;2947;52.276;9.946;2023-01-28T01:56:53;6.93;;;1.20;;
5841;SDS011;2947;52.276;9.946;2023-01-28T01:59:21;4.70;;;1.13;;
5841;SDS011;2947;52.276;9.946;2023-01-28T02:01:54;5.33;;;1.57;;
5841;SDS011;2947;52.276;9.946;2023-01-28T02:04:24;2.70;;;1.07;;
5841;SDS011;2947;52.276;9.946;2023-01-28T02:06:54;9.43;;;1.30;;
5841;SDS011;2947;52.276;9.946;2023-01-28T02:09:24;3.53;;;0.90;;
5841;SDS011;2947;52.276;9.946;2023-01-28T02:11:52;2.50;;;0.90;;
5841;SDS011;2947;52.276;9.946;2023-01-28T02:14:44;4.60;;;0.90;;
5841;SDS011;2947;52.276;9.946;2023-01-28T02:17:15;4.30;;;0.83;;
5841;SDS011;2947;52.276;9.946;2023-01-28T02:19:55;2.30;;;0.93;;
5841;SDS011;2947;52.276;9.946;2023-01-28T02:31:43;4.77;;;1.40;;
5841;SDS011;2947;52.276;9.946;2023-01-28T02:39:44;4.80;;;0.97;;
5841;SDS011;2947;52.276;9.946;2023-01-28T02:44:53;3.97;;;1.00;;
5841;SDS011;2947;52.276;9.946;2023-01-28T02:47:18;5.33;;;1.10;;
5841;SDS011;2947;52.276;9.946;2023-01-28T02:50:07;2.37;;;0.80;;
5841;SDS011;2947;52.276;9.946;2023-01-28T02:52:48;2.00;;;0.90;;
5841;SDS011;2947;52.276;9.946;2023-01-28T03:03:59;1.60;;;0.80;;
5841;SDS011;2947;52.276;9.946;2023-01-28T03:06:33;5.33;;;1.27;;
5841;SDS011;2947;52.276;9.946;2023-01-28T03:09:12;3.47;;;0.87;;
5841;SDS011;2947;52.276;9.946;2023-01-28T03:12:06;4.23;;;0.97;;
5841;SDS011;2947;52.276;9.946;2023-01-28T03:14:57;4.93;;;0.90;;
5841;SDS011;2947;52.276;9.946;2023-01-28T03:21:01;1.50;;;0.63;;
5841;SDS011;2947;52.276;9.946;2023-01-28T03:24:04;1.53;;;0.60;;
5841;SDS011;2947;52.276;9.946;2023-01-28T03:26:54;3.93;;;0.80;;
5841;SDS011;2947;52.276;9.946;2023-01-28T03:29:56;3.70;;;1.20;;
5841;SDS011;2947;52.276;9.946;2023-01-28T03:32:47;2.30;;;0.90;;
5841;SDS011;2947;52.276;9.946;2023-01-28T03:35:33;1.80;;;0.70;;
5841;SDS011;2947;52.276;9.946;2023-01-28T03:38:19;3.10;;;0.90;;
5841;SDS011;2947;52.276;9.946;2023-01-28T03:40:50;6.20;;;1.17;;
5841;SDS011;2947;52.276;9.946;2023-01-28T03:43:25;5.10;;;0.93;;
5841;SDS011;2947;52.276;9.946;2023-01-28T03:45:52;4.50;;;1.07;;
5841;SDS011;2947;52.276;9.946;2023-01-28T03:48:19;3.87;;;1.50;;
5841;SDS011;2947;52.276;9.946;2023-01-28T03:50:50;3.33;;;1.37;;
5841;SDS011;2947;52.276;9.946;2023-01-28T03:53:17;4.93;;;1.10;;
5841;SDS011;2947;52.276;9.946;2023-01-28T03:55:47;1.90;;;1.00;;
5841;SDS011;2947;52.276;9.946;2023-01-28T03:58:15;3.07;;;0.90;;
5841;SDS011;2947;52.276;9.946;2023-01-28T04:00:42;6.80;;;1.10;;
5841;SDS011;2947;52.276;9.946;2023-01-28T04:03:12;7.47;;;0.90;;
5841;SDS011;2947;52.276;9.946;2023-01-28T04:05:44;3.40;;;1.20;;
5841;SDS011;2947;52.276;9.946;2023-01-28T04:08:23;4.60;;;1.10;;
5841;SDS011;2947;52.276;9.946;2023-01-28T04:10:49;3.67;;;1.00;;
5841;SDS011;2947;52.276;9.946;2023-01-28T04:13:15;1.80;;;0.63;;
5841;SDS011;2947;52.276;9.946;2023-01-28T04:15:42;4.80;;;0.70;;
5841;SDS011;2947;52.276;9.946;2023-01-28T04:18:09;2.00;;;0.90;;
5841;SDS011;2947;52.276;9.946;2023-01-28T04:20:35;3.10;;;0.90;;
5841;SDS011;2947;52.276;9.946;2023-01-28T04:23:01;3.33;;;1.10;;
5841;SDS011;2947;52.276;9.946;2023-01-28T04:25:30;2.30;;;0.90;;
5841;SDS011;2947;52.276;9.946;2023-01-28T04:27:56;3.30;;;0.93;;
5841;SDS011;2947;52.276;9.946;2023-01-28T04:30:22;2.93;;;0.90;;
5841;SDS011;2947;52.276;9.946;2023-01-28T04:32:47;1.87;;;0.80;;
5841;SDS011;2947;52.276;9.946;2023-01-28T04:35:16;1.97;;;0.70;;
5841;SDS011;2947;52.276;9.946;2023-01-28T04:37:42;4.70;;;0.80;;
5841;SDS011;2947;52.276;9.946;2023-01-28T04:40:10;3.17;;;0.90;;
5841;SDS011;2947;52.276;9.946;2023-01-28T04:42:37;3.30;;;0.73;;
5841;SDS011;2947;52.276;9.946;2023-01-28T04:45:03;3.03;;;0.80;;
5841;SDS011;2947;52.276;9.946;2023-01-28T04:47:30;5.20;;;1.13;;
5841;SDS011;2947;52.276;9.946;2023-01-28T04:49:56;4.13;;;1.10;;
5841;SDS011;2947;52.276;9.946;2023-01-28T04:52:22;3.03;;;0.90;;
5841;SDS011;2947;52.276;9.946;2023-01-28T04:54:48;2.27;;;0.73;;
5841;SDS011;2947;52.276;9.946;2023-01-28T04:57:13;2.60;;;0.67;;
5841;SDS011;2947;52.276;9.946;2023-01-28T04:59:41;2.90;;;0.80;;
5841;SDS011;2947;52.276;9.946;2023-01-28T05:02:07;3.83;;;1.07;;
5841;SDS011;2947;52.276;9.946;2023-01-28T05:04:32;2.87;;;1.10;;
5841;SDS011;2947;52.276;9.946;2023-01-28T05:06:58;4.27;;;1.00;;
5841;SDS011;2947;52.276;9.946;2023-01-28T05:09:24;6.30;;;1.07;;
5841;SDS011;2947;52.276;9.946;2023-01-28T05:11:51;2.43;;;0.90;;
5841;SDS011;2947;52.276;9.946;2023-01-28T05:14:16;2.07;;;1.00;;
5841;SDS011;2947;52.276;9.946;2023-01-28T05:16:42;2.40;;;0.70;;
5841;SDS011;2947;52.276;9.946;2023-01-28T05:19:08;2.40;;;1.57;;
5841;SDS011;2947;52.276;9.946;2023-01-28T05:21:34;2.63;;;0.90;;
5841;SDS011;2947;52.276;9.946;2023-01-28T05:24:00;5.10;;;1.23;;
5841;SDS011;2947;52.276;9.946;2023-01-28T05:26:26;2.50;;;0.70;;
5841;SDS011;2947;52.276;9.946;2023-01-28T05:28:52;2.53;;;0.77;;
5841;SDS011;2947;52.276;9.946;2023-01-28T05:31:17;2.20;;;0.90;;
5841;SDS011;2947;52.276;9.946;2023-01-28T05:33:43;2.20;;;0.97;;
5841;SDS011;2947;52.276;9.946;2023-01-28T05:36:09;3.43;;;0.90;;
5841;SDS011;2947;52.276;9.946;2023-01-28T05:38:34;5.67;;;0.93;;
5841;SDS011;2947;52.276;9.946;2023-01-28T05:41:00;3.73;;;0.93;;
5841;SDS011;2947;52.276;9.946;2023-01-28T05:43:26;3.17;;;1.30;;
5841;SDS011;2947;52.276;9.946;2023-01-28T05:45:52;2.37;;;0.83;;
5841;SDS011;2947;52.276;9.946;2023-01-28T05:48:18;2.70;;;1.10;;
5841;SDS011;2947;52.276;9.946;2023-01-28T05:50:45;2.90;;;0.70;;
5841;SDS011;2947;52.276;9.946;2023-01-28T05:53:12;3.93;;;2.30;;
5841;SDS011;2947;52.276;9.946;2023-01-28T05:55:37;8.80;;;4.10;;
5841;SDS011;2947;52.276;9.946;2023-01-28T05:58:03;10.47;;;4.77;;
5841;SDS011;2947;52.276;9.946;2023-01-28T06:00:29;3.17;;;1.60;;
5841;SDS011;2947;52.276;9.946;2023-01-28T06:02:54;9.03;;;4.80;;
5841;SDS011;2947;52.276;9.946;2023-01-28T06:05:20;4.83;;;2.33;;
5841;SDS011;2947;52.276;9.946;2023-01-28T06:07:46;3.87;;;1.80;;
5841;SDS011;2947;52.276;9.946;2023-01-28T06:10:12;4.50;;;1.50;;
5841;SDS011;2947;52.276;9.946;2023-01-28T06:12:39;7.13;;;1.80;;
5841;SDS011;2947;52.276;9.946;2023-01-28T06:15:05;4.63;;;1.00;;
5841;SDS011;2947;52.276;9.946;2023-01-28T06:17:32;4.80;;;1.10;;
5841;SDS011;2947;52.276;9.946;2023-01-28T06:19:57;4.10;;;1.00;;
5841;SDS011;2947;52.276;9.946;2023-01-28T06:22:23;7.83;;;1.90;;
5841;SDS011;2947;52.276;9.946;2023-01-28T06:24:49;3.70;;;1.70;;
5841;SDS011;2947;52.276;9.946;2023-01-28T06:27:15;3.97;;;1.20;;
5841;SDS011;2947;52.276;9.946;2023-01-28T06:29:40;3.43;;;1.27;;
5841;SDS011;2947;52.276;9.946;2023-01-28T06:32:06;5.57;;;1.80;;
5841;SDS011;2947;52.276;9.946;2023-01-28T06:34:32;4.83;;;1.93;;
5841;SDS011;2947;52.276;9.946;2023-01-28T06:36:58;4.70;;;2.20;;
5841;SDS011;2947;52.276;9.946;2023-01-28T06:39:23;3.27;;;1.37;;
5841;SDS011;2947;52.276;9.946;2023-01-28T06:41:51;4.33;;;1.17;;
5841;SDS011;2947;52.276;9.946;2023-01-28T06:44:16;3.30;;;1.00;;
5841;SDS011;2947;52.276;9.946;2023-01-28T06:46:42;4.70;;;0.87;;
5841;SDS011;2947;52.276;9.946;2023-01-28T06:49:08;5.97;;;1.50;;
5841;SDS011;2947;52.276;9.946;2023-01-28T06:51:36;7.23;;;1.70;;
5841;SDS011;2947;52.276;9.946;2023-01-28T06:54:01;8.40;;;2.33;;
5841;SDS011;2947;52.276;9.946;2023-01-28T06:56:27;3.07;;;1.07;;
5841;SDS011;2947;52.276;9.946;2023-01-28T06:58:53;8.10;;;1.47;;
5841;SDS011;2947;52.276;9.946;2023-01-28T07:01:19;3.97;;;1.07;;
5841;SDS011;2947;52.276;9.946;2023-01-28T07:03:44;5.90;;;1.20;;
5841;SDS011;2947;52.276;9.946;2023-01-28T07:06:10;4.20;;;1.30;;
5841;SDS011;2947;52.276;9.946;2023-01-28T07:08:36;10.40;;;3.53;;
5841;SDS011;2947;52.276;9.946;2023-01-28T07:11:02;6.70;;;2.00;;
5841;SDS011;2947;52.276;9.946;2023-01-28T07:13:28;4.33;;;1.63;;
5841;SDS011;2947;52.276;9.946;2023-01-28T07:15:54;5.80;;;2.07;;
5841;SDS011;2947;52.276;9.946;2023-01-28T07:18:20;5.70;;;2.00;;
5841;SDS011;2947;52.276;9.946;2023-01-28T07:20:46;4.70;;;2.20;;
5841;SDS011;2947;52.276;9.946;2023-01-28T07:23:11;7.93;;;2.40;;
5841;SDS011;2947;52.276;9.946;2023-01-28T07:25:37;4.00;;;2.30;;
5841;SDS011;2947;52.276;9.946;2023-01-28T07:28:03;4.17;;;1.70;;
5841;SDS011;2947;52.276;9.946;2023-01-28T07:30:29;3.03;;;1.10;;
5841;SDS011;2947;52.276;9.946;2023-01-28T07:32:55;4.33;;;1.10;;
5841;SDS011;2947;52.276;9.946;2023-01-28T07:35:23;5.70;;;1.63;;
5841;SDS011;2947;52.276;9.946;2023-01-28T07:37:52;3.40;;;1.70;;
5841;SDS011;2947;52.276;9.946;2023-01-28T07:40:19;2.70;;;1.20;;
5841;SDS011;2947;52.276;9.946;2023-01-28T07:42:46;2.17;;;1.00;;
5841;SDS011;2947;52.276;9.946;2023-01-28T07:45:11;2.10;;;0.87;;
5841;SDS011;2947;52.276;9.946;2023-01-28T07:47:38;4.63;;;0.90;;
5841;SDS011;2947;52.276;9.946;2023-01-28T07:50:04;6.60;;;1.20;;
5841;SDS011;2947;52.276;9.946;2023-01-28T07:52:30;6.10;;;1.17;;
5841;SDS011;2947;52.276;9.946;2023-01-28T07:55:02;6.40;;;1.13;;
5841;SDS011;2947;52.276;9.946;2023-01-28T07:57:28;1.80;;;1.07;;
5841;SDS011;2947;52.276;9.946;2023-01-28T07:59:55;3.43;;;1.10;;
5841;SDS011;2947;52.276;9.946;2023-01-28T08:02:20;2.10;;;1.00;;
5841;SDS011;2947;52.276;9.946;2023-01-28T08:04:46;2.27;;;0.80;;
5841;SDS011;2947;52.276;9.946;2023-01-28T08:07:12;2.37;;;1.27;;
5841;SDS011;2947;52.276;9.946;2023-01-28T08:09:37;3.53;;;0.90;;
5841;SDS011;2947;52.276;9.946;2023-01-28T08:12:03;3.00;;;1.43;;
5841;SDS011;2947;52.276;9.946;2023-01-28T08:14:29;1.70;;;1.00;;
5841;SDS011;2947;52.276;9.946;2023-01-28T08:16:56;3.60;;;1.10;;
5841;SDS011;2947;52.276;9.946;2023-01-28T08:19:22;6.03;;;1.03;;
5841;SDS011;2947;52.276;9.946;2023-01-28T08:21:47;3.20;;;1.10;;
5841;SDS011;2947;52.276;9.946;2023-01-28T08:24:13;2.90;;;1.07;;
5841;SDS011;2947;52.276;9.946;2023-01-28T08:26:39;2.20;;;0.90;;
5841;SDS011;2947;52.276;9.946;2023-01-28T08:29:07;5.23;;;1.00;;
5841;SDS011;2947;52.276;9.946;2023-01-28T08:31:33;3.20;;;0.80;;
5841;SDS011;2947;52.276;9.946;2023-01-28T08:33:59;7.20;;;0.90;;
5841;SDS011;2947;52.276;9.946;2023-01-28T08:36:25;2.33;;;1.10;;
5841;SDS011;2947;52.276;9.946;2023-01-28T08:38:52;2.30;;;1.27;;
5841;SDS011;2947;52.276;9.946;2023-01-28T08:41:21;1.90;;;0.80;;
5841;SDS011;2947;52.276;9.946;2023-01-28T08:43:48;5.40;;;1.27;;
5841;SDS011;2947;52.276;9.946;2023-01-28T08:46:17;3.83;;;1.10;;
5841;SDS011;2947;52.276;9.946;2023-01-28T08:48:44;2.77;;;1.23;;
5841;SDS011;2947;52.276;9.946;2023-01-28T08:51:09;5.60;;;2.03;;
5841;SDS011;2947;52.276;9.946;2023-01-28T08:53:35;5.30;;;1.67;;
5841;SDS011;2947;52.276;9.946;2023-01-28T08:56:01;2.90;;;0.93;;
5841;SDS011;2947;52.276;9.946;2023-01-28T08:58:26;4.63;;;1.00;;
5841;SDS011;2947;52.276;9.946;2023-01-28T09:00:52;2.10;;;0.80;;
5841;SDS011;2947;52.276;9.946;2023-01-28T09:03:18;2.97;;;1.10;;
5841;SDS011;2947;52.276;9.946;2023-01-28T09:05:43;4.23;;;1.13;;
5841;SDS011;2947;52.276;9.946;2023-01-28T09:08:11;2.77;;;1.33;;
5841;SDS011;2947;52.276;9.946;2023-01-28T09:10:39;3.17;;;1.03;;
5841;SDS011;2947;52.276;9.946;2023-01-28T09:13:06;2.47;;;0.87;;
5841;SDS011;2947;52.276;9.946;2023-01-28T09:15:37;2.73;;;1.00;;
5841;SDS011;2947;52.276;9.946;2023-01-28T09:18:04;6.53;;;1.20;;
5841;SDS011;2947;52.276;9.946;2023-01-28T09:20:30;7.70;;;1.33;;
5841;SDS011;2947;52.276;9.946;2023-01-28T09:22:57;5.80;;;1.13;;
5841;SDS011;2947;52.276;9.946;2023-01-28T09:25:24;3.63;;;1.13;;
5841;SDS011;2947;52.276;9.946;2023-01-28T09:27:49;2.20;;;1.10;;
5841;SDS011;2947;52.276;9.946;2023-01-28T09:30:15;3.97;;;1.10;;
5841;SDS011;2947;52.276;9.946;2023-01-28T09:32:41;4.07;;;1.43;;
5841;SDS011;2947;52.276;9.946;2023-01-28T09:35:07;1.77;;;0.90;;
5841;SDS011;2947;52.276;9.946;2023-01-28T09:37:33;4.00;;;1.10;;
5841;SDS011;2947;52.276;9.946;2023-01-28T09:39:59;2.20;;;1.00;;
5841;SDS011;2947;52.276;9.946;2023-01-28T09:45:17;3.03;;;1.30;;
5841;SDS011;2947;52.276;9.946;2023-01-28T09:48:02;3.67;;;1.77;;
5841;SDS011;2947;52.276;9.946;2023-01-28T09:50:32;4.03;;;1.47;;
5841;SDS011;2947;52.276;9.946;2023-01-28T09:55:49;3.47;;;1.43;;
5841;SDS011;2947;52.276;9.946;2023-01-28T09:58:35;4.40;;;1.67;;
5841;SDS011;2947;52.276;9.946;2023-01-28T10:01:03;4.60;;;1.57;;
5841;SDS011;2947;52.276;9.946;2023-01-28T10:07:28;5.40;;;1.53;;
5841;SDS011;2947;52.276;9.946;2023-01-28T10:10:12;3.13;;;1.30;;
5841;SDS011;2947;52.276;9.946;2023-01-28T10:12:48;2.67;;;1.37;;
5841;SDS011;2947;52.276;9.946;2023-01-28T10:18:33;3.30;;;1.50;;
5841;SDS011;2947;52.276;9.946;2023-01-28T10:21:19;5.80;;;1.30;;
5841;SDS011;2947;52.276;9.946;2023-01-28T10:26:47;8.87;;;1.87;;
5841;SDS011;2947;52.276;9.946;2023-01-28T10:29:14;3.30;;;1.67;;
5841;SDS011;2947;52.276;9.946;2023-01-28T10:31:53;3.60;;;1.63;;
5841;SDS011;2947;52.276;9.946;2023-01-28T10:34:40;2.90;;;1.27;;
5841;SDS011;2947;52.276;9.946;2023-01-28T10:37:12;4.90;;;1.90;;
5841;SDS011;2947;52.276;9.946;2023-01-28T10:39:40;4.67;;;2.03;;
5841;SDS011;2947;52.276;9.946;2023-01-28T10:42:40;3.83;;;1.97;;
5841;SDS011;2947;52.276;9.946;2023-01-28T10:45:07;5.90;;;1.80;;
5841;SDS011;2947;52.276;9.946;2023-01-28T10:50:58;6.27;;;1.40;;
5841;SDS011;2947;52.276;9.946;2023-01-28T10:53:39;5.10;;;1.47;;
5841;SDS011;2947;52.276;9.946;2023-01-28T10:56:12;4.73;;;2.37;;
5841;SDS011;2947;52.276;9.946;2023-01-28T10:58:57;4.37;;;2.30;;
5841;SDS011;2947;52.276;9.946;2023-01-28T11:04:32;3.93;;;2.30;;
5841;SDS011;2947;52.276;9.946;2023-01-28T11:07:13;5.03;;;2.30;;
5841;SDS011;2947;52.276;9.946;2023-01-28T11:09:44;5.80;;;2.60;;
5841;SDS011;2947;52.276;9.946;2023-01-28T11:12:23;5.93;;;2.67;;
5841;SDS011;2947;52.276;9.946;2023-01-28T11:15:04;7.50;;;3.47;;
5841;SDS011;2947;52.276;9.946;2023-01-28T11:17:31;3.93;;;2.40;;
5841;SDS011;2947;52.276;9.946;2023-01-28T11:20:12;4.63;;;2.53;;
5841;SDS011;2947;52.276;9.946;2023-01-28T11:22:49;4.40;;;3.30;;
5841;SDS011;2947;52.276;9.946;2023-01-28T11:25:23;8.33;;;3.30;;
5841;SDS011;2947;52.276;9.946;2023-01-28T11:27:55;5.30;;;3.30;;
5841;SDS011;2947;52.276;9.946;2023-01-28T11:30:31;5.43;;;3.27;;
5841;SDS011;2947;52.276;9.946;2023-01-28T11:33:12;4.90;;;2.60;;
5841;SDS011;2947;52.276;9.946;2023-01-28T11:35:56;5.53;;;2.37;;
5841;SDS011;2947;52.276;9.946;2023-01-28T11:38:29;5.00;;;2.70;;
5841;SDS011;2947;52.276;9.946;2023-01-28T11:40:56;3.73;;;2.40;;
5841;SDS011;2947;52.276;9.946;2023-01-28T11:43:25;6.70;;;3.50;;
5841;SDS011;2947;52.276;9.946;2023-01-28T11:51:52;5.20;;;2.73;;
5841;SDS011;2947;52.276;9.946;2023-01-28T11:59:53;5.40;;;2.93;;
5841;SDS011;2947;52.276;9.946;2023-01-28T12:05:27;6.27;;;2.90;;
5841;SDS011;2947;52.276;9.946;2023-01-28T12:14:25;6.33;;;3.07;;
5841;SDS011;2947;52.276;9.946;2023-01-28T12:34:39;9.23;;;2.77;;
5841;SDS011;2947;52.276;9.946;2023-01-28T12:37:47;6.80;;;3.20;;
5841;SDS011;2947;52.276;9.946;2023-01-28T12:40:49;5.60;;;2.40;;
5841;SDS011;2947;52.276;9.946;2023-01-28T12:48:53;5.50;;;3.53;;
5841;SDS011;2947;52.276;9.946;2023-01-28T12:51:33;7.00;;;3.40;;
5841;SDS011;2947;52.276;9.946;2023-01-28T12:54:22;6.73;;;3.37;;
5841;SDS011;2947;52.276;9.946;2023-01-28T12:56:55;8.17;;;3.27;;
5841;SDS011;2947;52.276;9.946;2023-01-28T13:07:30;6.40;;;3.10;;
5841;SDS011;2947;52.276;9.946;2023-01-28T13:12:50;7.23;;;2.80;;
5841;SDS011;2947;52.276;9.946;2023-01-28T13:15:17;9.33;;;3.07;;
5841;SDS011;2947;52.276;9.946;2023-01-28T13:18:01;4.77;;;2.97;;
5841;SDS011;2947;52.276;9.946;2023-01-28T13:23:03;5.70;;;2.73;;
5841;SDS011;2947;52.276;9.946;2023-01-28T13:25:50;4.30;;;2.77;;
5841;SDS011;2947;52.276;9.946;2023-01-28T13:28:26;4.07;;;2.50;;
5841;SDS011;2947;52.276;9.946;2023-01-28T13:31:07;5.73;;;3.13;;
5841;SDS011;2947;52.276;9.946;2023-01-28T13:33:45;8.03;;;2.83;;
5841;SDS011;2947;52.276;9.946;2023-01-28T13:41:49;7.10;;;3.00;;
5841;SDS011;2947;52.276;9.946;2023-01-28T13:44:19;6.20;;;3.20;;
5841;SDS011;2947;52.276;9.946;2023-01-28T13:46:45;3.83;;;2.87;;
5841;SDS011;2947;52.276;9.946;2023-01-28T13:49:14;5.17;;;3.17;;
5841;SDS011;2947;52.276;9.946;2023-01-28T13:51:50;5.57;;;3.00;;
5841;SDS011;2947;52.276;9.946;2023-01-28T13:54:28;4.60;;;3.07;;
5841;SDS011;2947;52.276;9.946;2023-01-28T14:02:19;5.00;;;3.03;;
5841;SDS011;2947;52.276;9.946;2023-01-28T14:05:37;5.20;;;3.87;;
5841;SDS011;2947;52.276;9.946;2023-01-28T14:11:02;3.77;;;2.87;;
5841;SDS011;2947;52.276;9.946;2023-01-28T14:16:39;4.20;;;2.93;;
5841;SDS011;2947;52.276;9.946;2023-01-28T14:19:25;4.40;;;3.20;;
5841;SDS011;2947;52.276;9.946;2023-01-28T14:22:05;6.20;;;3.50;;
5841;SDS011;2947;52.276;9.946;2023-01-28T14:24:32;3.87;;;2.90;;
5841;SDS011;2947;52.276;9.946;2023-01-28T14:27:01;5.03;;;3.10;;
5841;SDS011;2947;52.276;9.946;2023-01-28T14:32:29;8.43;;;3.40;;
5841;SDS011;2947;52.276;9.946;2023-01-28T14:34:57;5.50;;;3.10;;
5841;SDS011;2947;52.276;9.946;2023-01-28T14:37:29;5.23;;;3.70;;
5841;SDS011;2947;52.276;9.946;2023-01-28T14:42:41;4.23;;;3.17;;
5841;SDS011;2947;52.276;9.946;2023-01-28T14:45:18;6.70;;;3.20;;
5841;SDS011;2947;52.276;9.946;2023-01-28T14:48:20;7.43;;;3.27;;
5841;SDS011;2947;52.276;9.946;2023-01-28T14:51:21;5.17;;;2.97;;
5841;SDS011;2947;52.276;9.946;2023-01-28T15:00:15;6.70;;;3.43;;
5841;SDS011;2947;52.276;9.946;2023-01-28T15:02:46;8.03;;;3.17;;
5841;SDS011;2947;52.276;9.946;2023-01-28T15:05:19;6.30;;;2.77;;
5841;SDS011;2947;52.276;9.946;2023-01-28T15:07:50;5.20;;;2.93;;
5841;SDS011;2947;52.276;9.946;2023-01-28T15:10:18;4.97;;;3.10;;
5841;SDS011;2947;52.276;9.946;2023-01-28T15:12:53;5.33;;;3.27;;
5841;SDS011;2947;52.276;9.946;2023-01-28T15:15:28;4.17;;;2.70;;
5841;SDS011;2947;52.276;9.946;2023-01-28T15:18:12;6.80;;;2.90;;
5841;SDS011;2947;52.276;9.946;2023-01-28T15:20:43;4.07;;;2.90;;
5841;SDS011;2947;52.276;9.946;2023-01-28T15:23:41;8.77;;;2.63;;
5841;SDS011;2947;52.276;9.946;2023-01-28T15:26:17;4.23;;;2.40;;
5841;SDS011;2947;52.276;9.946;2023-01-28T15:28:47;5.40;;;3.03;;
5841;SDS011;2947;52.276;9.946;2023-01-28T15:31:25;7.13;;;3.03;;
5841;SDS011;2947;52.276;9.946;2023-01-28T15:34:16;4.63;;;3.10;;
5841;SDS011;2947;52.276;9.946;2023-01-28T15:36:43;4.23;;;2.80;;
5841;SDS011;2947;52.276;9.946;2023-01-28T15:39:12;5.20;;;3.30;;
5841;SDS011;2947;52.276;9.946;2023-01-28T15:41:41;6.57;;;3.60;;
5841;SDS011;2947;52.276;9.946;2023-01-28T15:44:16;7.20;;;3.70;;
5841;SDS011;2947;52.276;9.946;2023-01-28T15:46:53;5.30;;;2.90;;
5841;SDS011;2947;52.276;9.946;2023-01-28T15:49:27;5.57;;;2.73;;
5841;SDS011;2947;52.276;9.946;2023-01-28T15:51:58;5.13;;;3.60;;
5841;SDS011;2947;52.276;9.946;2023-01-28T15:54:24;5.50;;;3.17;;
5841;SDS011;2947;52.276;9.946;2023-01-28T15:56:54;13.43;;;3.47;;
5841;SDS011;2947;52.276;9.946;2023-01-28T15:59:28;6.07;;;3.27;;
5841;SDS011;2947;52.276;9.946;2023-01-28T16:02:30;5.93;;;3.57;;
5841;SDS011;2947;52.276;9.946;2023-01-28T16:05:00;6.10;;;3.77;;
5841;SDS011;2947;52.276;9.946;2023-01-28T16:07:41;10.00;;;4.87;;
5841;SDS011;2947;52.276;9.946;2023-01-28T16:10:15;7.37;;;3.83;;
5841;SDS011;2947;52.276;9.946;2023-01-28T16:12:47;7.93;;;3.90;;
5841;SDS011;2947;52.276;9.946;2023-01-28T16:15:17;7.53;;;3.30;;
5841;SDS011;2947;52.276;9.946;2023-01-28T16:17:48;5.30;;;3.93;;
5841;SDS011;2947;52.276;9.946;2023-01-28T16:20:18;10.27;;;3.97;;
5841;SDS011;2947;52.276;9.946;2023-01-28T16:22:47;7.63;;;3.97;;
5841;SDS011;2947;52.276;9.946;2023-01-28T16:25:26;6.40;;;3.83;;
5841;SDS011;2947;52.276;9.946;2023-01-28T16:27:55;6.63;;;3.90;;
5841;SDS011;2947;52.276;9.946;2023-01-28T16:30:24;9.03;;;4.27;;
5841;SDS011;2947;52.276;9.946;2023-01-28T16:32:50;10.17;;;4.57;;
5841;SDS011;2947;52.276;9.946;2023-01-28T16:35:20;7.80;;;3.97;;
5841;SDS011;2947;52.276;9.946;2023-01-28T16:37:50;7.00;;;4.20;;
5841;SDS011;2947;52.276;9.946;2023-01-28T16:40:17;10.23;;;6.40;;
5841;SDS011;2947;52.276;9.946;2023-01-28T16:42:48;13.40;;;7.10;;
5841;SDS011;2947;52.276;9.946;2023-01-28T16:45:15;22.43;;;10.20;;
5841;SDS011;2947;52.276;9.946;2023-01-28T16:47:47;27.20;;;13.20;;
5841;SDS011;2947;52.276;9.946;2023-01-28T16:50:14;52.00;;;19.00;;
5841;SDS011;2947;52.276;9.946;2023-01-28T16:52:42;67.30;;;24.80;;
5841;SDS011;2947;52.276;9.946;2023-01-28T16:55:10;18.20;;;10.53;;
5841;SDS011;2947;52.276;9.946;2023-01-28T16:57:38;15.10;;;9.00;;
5841;SDS011;2947;52.276;9.946;2023-01-28T17:00:06;14.00;;;9.30;;
5841;SDS011;2947;52.276;9.946;2023-01-28T17:02:35;14.30;;;10.40;;
5841;SDS011;2947;52.276;9.946;2023-01-28T17:05:01;12.87;;;8.50;;
5841;SDS011;2947;52.276;9.946;2023-01-28T17:07:27;27.30;;;14.10;;
5841;SDS011;2947;52.276;9.946;2023-01-28T17:09:53;28.00;;;16.50;;
5841;SDS011;2947;52.276;9.946;2023-01-28T17:12:18;20.77;;;12.40;;
5841;SDS011;2947;52.276;9.946;2023-01-28T17:14:44;22.57;;;10.20;;
5841;SDS011;2947;52.276;9.946;2023-01-28T17:17:10;13.17;;;8.00;;
5841;SDS011;2947;52.276;9.946;2023-01-28T17:19:35;23.63;;;11.70;;
5841;SDS011;2947;52.276;9.946;2023-01-28T17:22:01;63.07;;;22.67;;
5841;SDS011;2947;52.276;9.946;2023-01-28T17:24:28;33.50;;;14.13;;
5841;SDS011;2947;52.276;9.946;2023-01-28T17:26:54;25.10;;;12.57;;
5841;SDS011;2947;52.276;9.946;2023-01-28T17:29:19;23.00;;;10.53;;
5841;SDS011;2947;52.276;9.946;2023-01-28T17:31:45;23.53;;;10.50;;
5841;SDS011;2947;52.276;9.946;2023-01-28T17:34:11;13.10;;;8.47;;
5841;SDS011;2947;52.276;9.946;2023-01-28T17:36:36;12.53;;;8.10;;
5841;SDS011;2947;52.276;9.946;2023-01-28T17:39:03;10.77;;;7.50;;
5841;SDS011;2947;52.276;9.946;2023-01-28T17:41:31;12.87;;;8.73;;
5841;SDS011;2947;52.276;9.946;2023-01-28T17:43:57;17.43;;;8.73;;
5841;SDS011;2947;52.276;9.946;2023-01-28T17:46:24;15.70;;;8.30;;
5841;SDS011;2947;52.276;9.946;2023-01-28T17:48:51;23.03;;;11.20;;
5841;SDS011;2947;52.276;9.946;2023-01-28T17:51:17;21.23;;;11.80;;
5841;SDS011;2947;52.276;9.946;2023-01-28T17:53:50;23.33;;;9.70;;
5841;SDS011;2947;52.276;9.946;2023-01-28T17:56:21;16.57;;;8.83;;